• Join FlightAware (Why Join?)
  • Login
  • US Flag 
10:48AM EDT


 

Airport Tracker/Info


-or-


 

Live Flight TrackerFlight Track Log ✈ N589H ✈ 28-Mar-2014 ✈ TNCM / SXM - MYNN / NAS

Flight Track Log - Related Links

Times and Time Zones

All times are in EDT time to prevent confusion due to time zone crossing. See the N589H flight status page for this flight to view local times or setup timezone preferences in your user account.

Time Position Orientation Groundspeed Altitude Reporting Facility
EDT Latitude Longitude Course Direction KTS MPH feet Rate Location/Type
10:31AM 18.0000 -63.0667 289° West 190 219 7,200  Level San Juan Center
10:32AM 18.0167 -63.1167 289° West 230 265 8,700 1,500 Climbing San Juan Center
10:33AM 18.0167 -63.2000 270° West 240 276 10,300 1,560 Climbing San Juan Center
10:34AM 18.0333 -63.2667 285° West 260 299 11,900 1,560 Climbing San Juan Center
10:35AM 18.0500 -63.3500 282° West 270 311 13,500 1,620 Climbing San Juan Center
10:36AM 18.0667 -63.4333 282° West 270 311 15,200 1,620 Climbing San Juan Center
10:37AM 18.0833 -63.5000 285° West 270 311 16,800 1,620 Climbing San Juan Center
10:38AM 18.1000 -63.5833 282° West 270 311 18,500 1,560 Climbing San Juan Center
10:39AM 18.1000 -63.6667 270° West 270 311 20,000 1,380 Climbing San Juan Center
10:40AM 18.1167 -63.7333 285° West 260 299 21,400 1,200 Climbing San Juan Center
10:41AM 18.1500 -63.8000 298° West 280 322 22,400 960 Climbing San Juan Center
10:42AM 18.1833 -63.8833 293° West 290 334 23,400 1,020 Climbing San Juan Center
10:43AM 18.2167 -63.9667 293° West 300 345 24,500 1,020 Climbing San Juan Center
10:44AM 18.2500 -64.0500 293° West 300 345 25,500 960 Climbing San Juan Center
10:45AM 18.2833 -64.1333 293° West 300 345 26,500 900 Climbing San Juan Center
10:46AM 18.3000 -64.2167 282° West 300 345 27,400 900 Climbing San Juan Center
10:47AM 18.3333 -64.2833 298° West 290 334 28,400 840 Climbing San Juan Center
10:48AM 18.3667 -64.3667 293° West 290 334 29,200 780 Climbing San Juan Center
10:49AM 18.4000 -64.4500 293° West 280 322 30,000 660 Climbing San Juan Center
10:50AM 18.4333 -64.5333 293° West 290 334 30,600 480 Climbing San Juan Center
10:51AM 18.4667 -64.6000 298° West 290 334 31,000 300 Climbing San Juan Center
10:52AM 18.5000 -64.6833 293° West 300 345 31,300 300 Climbing San Juan Center
10:53AM 18.5333 -64.7667 293° West 310 357 31,700 300 Climbing San Juan Center
10:54AM 18.5500 -64.8500 282° West 310 357 32,000 120 Climbing San Juan Center
10:55AM 18.5833 -64.9333 293° West 320 368 32,000  Level San Juan Center
10:56AM 18.6167 -65.0333 289° West 330 380 32,000  Level San Juan Center
10:57AM 18.6500 -65.1167 293° West 330 380 32,000  Level San Juan Center
10:58AM 18.6833 -65.2167 289° West 330 380 32,000  Level San Juan Center
10:59AM 18.7167 -65.3000 293° West 320 368 32,000  Level San Juan Center
11:00AM 18.7667 -65.3833 302° West 320 368 32,000  Level San Juan Center
11:01AM 18.7833 -65.4833 280° West 330 380 32,000  Level San Juan Center
11:02AM 18.8167 -65.5667 293° West 320 368 32,000  Level San Juan Center
11:03AM 18.8500 -65.6500 293° West 320 368 32,000  Level San Juan Center
11:04AM 18.8833 -65.7500 289° West 320 368 32,000  Level San Juan Center
11:05AM 18.9167 -65.8333 293° West 320 368 32,000  Level San Juan Center
11:06AM 18.9500 -65.9167 293° West 320 368 32,000  Level San Juan Center
11:07AM 18.9833 -66.0167 289° West 310 357 32,000  Level San Juan Center
11:08AM 19.0167 -66.1000 293° West 320 368 32,000  Level San Juan Center
11:09AM 19.0500 -66.1833 293° West 320 368 32,000  Level San Juan Center
11:10AM 19.0833 -66.2667 293° West 320 368 32,000  Level San Juan Center
11:11AM 19.1167 -66.3667 289° West 320 368 32,000  Level San Juan Center
11:12AM 19.1500 -66.4500 293° West 330 380 32,000  Level San Juan Center
11:13AM 19.1833 -66.5333 293° West 310 357 32,000  Level San Juan Center
11:14AM 19.2167 -66.6167 293° West 320 368 32,000  Level San Juan Center
11:15AM 19.2500 -66.7000 293° West 330 380 32,000  Level San Juan Center
11:16AM 19.2833 -66.8000 289° West 330 380 32,000  Level San Juan Center
11:17AM 19.3167 -66.8833 293° West 330 380 32,000  Level San Juan Center
11:18AM 19.3333 -66.9833 280° West 320 368 32,000  Level San Juan Center
11:19AM 19.3667 -67.0667 293° West 330 380 32,000  Level San Juan Center
11:20AM 19.4000 -67.1500 293° West 330 380 32,000  Level San Juan Center
11:21AM 19.4333 -67.2500 289° West 330 380 32,000  Level San Juan Center
11:22AM 19.4833 -67.3500 298° West 330 380 32,000  Level San Juan Center
11:23AM 19.5167 -67.4500 289° West 330 380 32,000  Level San Juan Center
11:24AM 19.5500 -67.5333 293° West 330 380 32,000  Level San Juan Center
11:25AM 19.5833 -67.6167 293° West 330 380 32,000  Level San Juan Center
11:26AM 19.6167 -67.7167 290° West 330 380 32,000  Level San Juan Center
11:27AM 19.6333 -67.8000 282° West 330 380 32,000  Level San Juan Center
11:28AM 19.6667 -67.9000 290° West 330 380 32,000  Level San Juan Center
11:29AM 19.7000 -67.9833 293° West 320 368 32,000  Level San Juan Center
11:30AM 19.7333 -68.0667 293° West 330 380 32,000  Level San Juan Center
11:31AM 19.7667 -68.1667 290° West 320 368 32,000  Level San Juan Center
11:32AM 19.8000 -68.2500 293° West 330 380 32,000  Level San Juan Center
11:34AM 19.8611 -68.4247 290° West 391 450 32,000  Level Miami Center
11:35AM 19.8969 -68.5106 294° West 346 398 32,000  Level Miami Center
11:36AM 19.9447 -68.5911 302° West 319 367 32,000  Level Miami Center
11:37AM 19.9947 -68.6675 305° West 324 373 32,000  Level Miami Center
11:38AM 20.0425 -68.7483 302° West 324 373 32,000  Level Miami Center
11:39AM 20.0944 -68.8267 305° West 324 373 32,000  Level Miami Center
11:40AM 20.1400 -68.9056 302° West 324 373 32,000  Level Miami Center
11:41AM 20.1900 -68.9844 304° West 324 373 32,000  Level Miami Center
11:42AM 20.2375 -69.0633 303° West 324 373 32,000  Level Miami Center
11:43AM 20.2850 -69.1400 303° West 324 373 32,000  Level Miami Center
11:44AM 20.3306 -69.2192 302° West 319 367 32,000  Level Miami Center
11:45AM 20.3803 -69.2958 305° West 314 361 32,000  Level Miami Center
11:46AM 20.4258 -69.3772 301° West 314 361 32,000  Level Miami Center
11:47AM 20.4753 -69.4542 304° West 314 361 32,000  Level Miami Center
11:48AM 20.5208 -69.5358 301° West 314 361 32,000  Level Miami Center
11:49AM 20.5681 -69.6128 303° West 314 361 32,000  Level Miami Center
11:50AM 20.6178 -69.6919 304° West 314 361 32,000  Level Miami Center
11:51AM 20.6650 -69.7714 302° West 314 361 32,000  Level Miami Center
11:52AM 20.7125 -69.8511 303° West 314 361 32,000  Level Miami Center
11:53AM 20.7597 -69.9283 303° West 319 367 32,000  Level Miami Center
11:54AM 20.8050 -70.0081 301° West 314 361 32,000  Level Miami Center
11:55AM 20.8542 -70.0853 304° West 314 361 32,000  Level Miami Center
11:56AM 20.9014 -70.1650 302° West 314 361 32,000  Level Miami Center
11:57AM 20.9486 -70.2447 302° West 319 367 32,000  Level Miami Center
11:58AM 20.9936 -70.3225 302° West 319 367 32,000  Level Miami Center
11:59AM 21.0406 -70.4000 303° West 314 361 32,000  Level Miami Center
12:00PM 21.0878 -70.4778 303° West 314 361 32,000  Level Miami Center
12:01PM 21.1347 -70.5578 302° West 314 361 32,000  Level Miami Center
12:02PM 21.1794 -70.6358 302° West 314 361 32,000  Level Miami Center
12:03PM 21.2264 -70.7136 303° West 314 361 32,000  Level Miami Center
12:04PM 21.2733 -70.7917 303° West 314 361 32,000  Level Miami Center
12:05PM 21.3092 -70.8544 302° West 314 361 32,000  Level Miami Center
12:06PM 21.3650 -70.9456 303° West 314 361 32,000  Level Miami Center
12:07PM 21.4117 -71.0236 303° West 314 361 32,000  Level Miami Center
12:08PM 21.4589 -71.1131 300° West 314 361 32,000  Level Miami Center
12:09PM 21.5078 -71.1933 303° West 314 361 32,000  Level Miami Center
12:10PM 21.5611 -71.2847 302° West 370 426 32,000  Level Miami Center
12:11PM 21.6056 -71.3608 302° West 340 391 32,000  Level Miami Center
12:12PM 21.6522 -71.4392 303° West 318 366 32,000  Level Miami Center
12:13PM 21.6967 -71.5178 301° West 313 360 32,000  Level Miami Center
12:14PM 21.7433 -71.5964 303° West 313 360 32,000  Level Miami Center
12:15PM 21.7856 -71.6728 301° West 313 360 32,000  Level Miami Center
12:16PM 21.8319 -71.7514 302° West 313 360 32,000  Level Miami Center
12:17PM 21.8783 -71.8303 302° West 313 360 32,000  Level Miami Center
12:18PM 21.9228 -71.9114 301° West 313 360 32,000  Level Miami Center
12:19PM 21.9692 -71.9878 303° West 313 360 32,000  Level Miami Center
12:20PM 22.0111 -72.0647 300° West 313 360 32,000  Level Miami Center
12:21PM 22.0553 -72.1436 301° West 313 360 32,000  Level Miami Center
12:22PM 22.1017 -72.2225 302° West 313 360 32,000  Level Miami Center
12:23PM 22.1458 -72.3017 301° West 313 360 32,000  Level Miami Center
12:24PM 22.1919 -72.3786 303° West 313 360 32,000  Level Miami Center
12:25PM 22.2361 -72.4600 300° West 313 360 32,000  Level Miami Center
12:26PM 22.2800 -72.5392 301° West 313 360 32,000  Level Miami Center
12:27PM 22.3239 -72.6164 302° West 313 360 32,000  Level Miami Center
12:28PM 22.3678 -72.6936 302° West 313 360 32,000  Level Miami Center
12:29PM 22.4139 -72.7706 303° West 307 353 32,000  Level Miami Center
12:30PM 22.4597 -72.8478 303° West 307 353 32,000  Level Miami Center
12:31PM 22.4994 -72.9297 298° West 307 353 32,000  Level Miami Center
12:32PM 22.5433 -73.0094 301° West 301 346 32,000  Level Miami Center
12:33PM 22.5911 -73.0844 305° West 307 353 32,000  Level Miami Center
12:34PM 22.6306 -73.1553 301° West 307 353 32,000  Level Miami Center
12:35PM 22.6761 -73.2350 302° West 307 353 32,000  Level Miami Center
12:36PM 22.7286 -73.3281 301° West 313 360 32,000  Level Miami Center
12:37PM 22.7764 -73.4078 303° West 313 360 32,000  Level Miami Center
12:38PM 22.8178 -73.4856 300° West 307 353 32,000  Level Miami Center
12:39PM 22.8614 -73.5656 301° West 307 353 32,000  Level Miami Center
12:40PM 22.9069 -73.6456 302° West 307 353 32,000  Level Miami Center
12:41PM 22.9503 -73.7233 301° West 302 348 32,000  Level Miami Center
12:42PM 22.9936 -73.8036 300° West 307 353 32,000  Level Miami Center
12:43PM 23.0392 -73.8814 302° West 312 359 32,000  Level Miami Center
12:44PM 23.0825 -73.9617 300° West 312 359 32,000  Level Miami Center
12:45PM 23.1278 -74.0419 302° West 312 359 32,000  Level Miami Center
12:46PM 23.1711 -74.1200 301° West 312 359 32,000  Level Miami Center
12:47PM 23.2144 -74.1983 301° West 312 359 32,000  Level Miami Center
12:48PM 23.2556 -74.2789 299° West 312 359 32,000  Level Miami Center
12:49PM 23.3006 -74.3547 303° West 312 359 32,000  Level Miami Center
12:50PM 23.3436 -74.4331 301° West 307 353 32,000  Level Miami Center
12:51PM 23.3889 -74.5139 301° West 307 353 32,000  Level Miami Center
12:52PM 23.4297 -74.5922 300° West 307 353 32,000  Level Miami Center
12:53PM 23.4747 -74.6731 301° West 307 353 32,000  Level Miami Center
12:54PM 23.5178 -74.7517 301° West 302 348 32,000  Level Miami Center
12:55PM 23.5606 -74.8278 302° West 302 348 32,000  Level Miami Center
12:56PM 23.6033 -74.9089 300° West 302 348 32,000  Level Miami Center
12:57PM 23.6378 -74.9719 301° West 302 348 32,000  Level Miami Center
12:58PM 23.6911 -75.0708 301° West 302 348 32,000  Level Miami Center
12:59PM 23.7339 -75.1519 300° West 302 348 32,000  Level Miami Center
01:00PM 23.7786 -75.2331 301° West 302 348 32,000 -120 Level Miami Center
01:01PM 23.8233 -75.3119 302° West 302 348 31,800 -480 Descending Miami Center
01:02PM 23.8661 -75.3956 299° West 308 354 31,100 -660 Descending Miami Center
01:03PM 23.9128 -75.4836 300° West 314 361 30,500 -600 Descending Miami Center
01:04PM 23.9597 -75.5694 301° West 327 376 29,900 -780 Descending Miami Center
01:05PM 24.0064 -75.6578 300° West 332 382 29,000 -900 Descending Miami Center
01:06PM 24.0550 -75.7483 300° West 332 382 28,200 -900 Descending Miami Center
01:07PM 24.1017 -75.8367 300° West 332 382 27,200 -1,020 Descending Miami Center
01:08PM 24.1461 -75.9253 299° West 332 382 26,200 -1,020 Descending Miami Center
01:09PM 24.1947 -76.0114 302° West 332 382 25,200 -1,080 Descending Miami Center
01:10PM 24.2392 -76.0978 299° West 327 376 24,100 -1,080 Descending Miami Center
01:11PM 24.2833 -76.1817 300° West 327 376 23,100 -1,020 Descending Miami Center
01:12PM 24.3236 -76.2592 300° West 317 365 22,100 -1,140 Descending Miami Center
01:13PM 24.3656 -76.3364 301° West 306 352 20,900 -1,260 Descending Miami Center
01:14PM 24.4056 -76.4161 299° West 301 346 19,600 -1,440 Descending Miami Center
01:15PM 24.4475 -76.4914 301° West 294 338 18,100 -1,380 Descending Miami Center
01:16PM 24.4875 -76.5689 300° West 289 333 16,900 -1,320 Descending Miami Center
01:17PM 24.5231 -76.6442 297° West 289 333 15,500 -1,500 Descending Miami Center
01:18PM 24.5669 -76.7172 303° West 289 333 14,000 -1,500 Descending Miami Center
01:19PM 24.6069 -76.7925 300° West 289 333 12,500 -960 Descending Miami Center
01:20PM 24.6444 -76.8725 297° West 289 333 12,100 -240 Descending Miami Center
01:21PM 24.6947 -76.9433 308° West 295 339 12,100 -60 Level Miami Center
01:22PM 24.7447 -77.0167 307° West 295 339 12,000 -120 Descending Miami Center
01:24PM 24.8041 -77.1145 306° West  Level FlightAware Approximate
01:31PM 25.0333 -77.4500 310° West  Level FlightAware Approximate
01:32PM 25.0390 -77.4662 310° West  Level Estimated
01:33PM 25.0390 -77.4662 310° West  Level Estimated
01:34PM 25.0390 -77.4662 310° West  Level Estimated
01:35PM 25.0390 -77.4662 310° West  Level Estimated
01:36PM 25.0390 -77.4662 310° West  Level Estimated
01:37PM 25.0390 -77.4662 310° West  Level Estimated
01:38PM 25.0390 -77.4662 310° West  Level Estimated
01:39PM 25.0390 -77.4662 310° West  Level Estimated
01:40PM 25.0390 -77.4662 310° West  Level Estimated
01:41PM 25.0390 -77.4662 310° West  Level Estimated
01:42PM 25.0390 -77.4662 310° West  Level Estimated
01:43PM 25.0390 -77.4662 310° West  Level Estimated